VJT527 HECA-LGKL
Flight info
| Callsign | VJT527 |
|---|---|
| Flight time | 1h 37m |
| Altitude | 40000 |
| Route | MENKU L617 TANSA UL613 VEGES UJ65 IRA DCT SOKRI |
| Aircraft | CL60/M-SBDE3FGHIJ4J7RWXYZ/LD1 |
Departure
| Time | 2026-04-16 14:11 |
|---|---|
| Airport | Cairo International Airport (HECA) |
Arrival
| Time | 2026-04-16 15:48 |
|---|---|
| Airport | Kalamata Airport (LGKL) |
| Time | Latitude | Longitude | Altitude | Speed | Heading |
|---|---|---|---|---|---|
| 2026-04-16 13:41 | 30.12405 | 31.39041 | 386 ft | 0 kts | 139° |
| 2026-04-16 14:03 | 30.12404 | 31.39043 | 386 ft | 1 kts | 125° |
| 2026-04-16 14:04 | 30.12417 | 31.39055 | 386 ft | 5 kts | 338° |
| 2026-04-16 14:04 | 30.12439 | 31.39026 | 386 ft | 7 kts | 310° |
| 2026-04-16 14:04 | 30.12454 | 31.39014 | 386 ft | 8 kts | 340° |
| 2026-04-16 14:05 | 30.12505 | 31.39046 | 386 ft | 9 kts | 77° |
| 2026-04-16 14:05 | 30.12506 | 31.39052 | 386 ft | 0 kts | 86° |
| 2026-04-16 14:05 | 30.12508 | 31.39060 | 386 ft | 5 kts | 67° |
| 2026-04-16 14:05 | 30.12526 | 31.39089 | 386 ft | 7 kts | 50° |
| 2026-04-16 14:06 | 30.12580 | 31.39160 | 386 ft | 16 kts | 48° |
| 2026-04-16 14:06 | 30.12673 | 31.39285 | 386 ft | 24 kts | 49° |
| 2026-04-16 14:06 | 30.12798 | 31.39453 | 386 ft | 29 kts | 49° |
| 2026-04-16 14:06 | 30.12935 | 31.39638 | 386 ft | 31 kts | 49° |
| 2026-04-16 14:07 | 30.13080 | 31.39832 | 386 ft | 32 kts | 50° |
| 2026-04-16 14:07 | 30.13233 | 31.40034 | 386 ft | 33 kts | 48° |
| 2026-04-16 14:07 | 30.13394 | 31.40243 | 386 ft | 35 kts | 47° |
| 2026-04-16 14:07 | 30.13558 | 31.40456 | 387 ft | 34 kts | 48° |
| 2026-04-16 14:08 | 30.13668 | 31.40597 | 387 ft | 14 kts | 47° |
| 2026-04-16 14:08 | 30.13695 | 31.40629 | 387 ft | 15 kts | 40° |
| 2026-04-16 14:08 | 30.13781 | 31.40627 | 386 ft | 13 kts | 343° |
| 2026-04-16 14:08 | 30.13857 | 31.40577 | 386 ft | 11 kts | 284° |
| 2026-04-16 14:09 | 30.13843 | 31.40534 | 386 ft | 0 kts | 223° |
| 2026-04-16 14:10 | 30.13843 | 31.40533 | 386 ft | 0 kts | 223° |
| 2026-04-16 14:10 | 30.13723 | 31.40375 | 386 ft | 62 kts | 227° |
| 2026-04-16 14:10 | 30.13268 | 31.39766 | 386 ft | 132 kts | 230° |
| 2026-04-16 14:10 | 30.12580 | 31.38838 | 647 ft | 159 kts | 228° |
| 2026-04-16 14:11 | 30.11873 | 31.37850 | 1313 ft | 161 kts | 227° |
| 2026-04-16 14:11 | 30.11126 | 31.36844 | 1889 ft | 172 kts | 227° |
| 2026-04-16 14:11 | 30.10356 | 31.35781 | 2577 ft | 174 kts | 226° |
| 2026-04-16 14:11 | 30.09588 | 31.34689 | 3222 ft | 179 kts | 229° |
| 2026-04-16 14:12 | 30.08789 | 31.33613 | 3982 ft | 176 kts | 219° |
| 2026-04-16 14:12 | 30.08052 | 31.32486 | 4600 ft | 188 kts | 244° |
| 2026-04-16 14:12 | 30.07892 | 31.30803 | 4702 ft | 239 kts | 283° |
| 2026-04-16 14:12 | 30.08822 | 31.29130 | 5261 ft | 263 kts | 317° |
| 2026-04-16 14:13 | 30.10308 | 31.27724 | 5876 ft | 283 kts | 320° |
| 2026-04-16 14:13 | 30.11851 | 31.26299 | 6784 ft | 290 kts | 320° |
| 2026-04-16 14:13 | 30.13415 | 31.24845 | 7748 ft | 296 kts | 320° |
| 2026-04-16 14:13 | 30.15030 | 31.23330 | 8760 ft | 300 kts | 320° |
| 2026-04-16 14:14 | 30.16654 | 31.21795 | 9828 ft | 303 kts | 319° |
| 2026-04-16 14:14 | 30.18285 | 31.20225 | 10919 ft | 304 kts | 318° |
| 2026-04-16 14:14 | 30.19898 | 31.18661 | 12023 ft | 304 kts | 317° |
| 2026-04-16 14:14 | 30.21512 | 31.17094 | 13072 ft | 306 kts | 317° |
| 2026-04-16 14:15 | 30.23157 | 31.15492 | 14086 ft | 310 kts | 316° |
| 2026-04-16 14:15 | 30.24800 | 31.13890 | 15026 ft | 314 kts | 316° |
| 2026-04-16 14:15 | 30.26505 | 31.12225 | 15973 ft | 318 kts | 316° |
| 2026-04-16 14:15 | 30.28183 | 31.10585 | 16887 ft | 321 kts | 315° |
| 2026-04-16 14:16 | 30.29887 | 31.08917 | 17784 ft | 324 kts | 315° |
| 2026-04-16 14:16 | 30.31615 | 31.07223 | 18635 ft | 328 kts | 315° |
| 2026-04-16 14:16 | 30.33363 | 31.05509 | 19428 ft | 332 kts | 315° |
| 2026-04-16 14:16 | 30.35144 | 31.03760 | 20202 ft | 336 kts | 315° |
| 2026-04-16 14:17 | 30.36925 | 31.02010 | 20964 ft | 340 kts | 315° |
| 2026-04-16 14:17 | 30.38748 | 31.00217 | 21714 ft | 344 kts | 315° |
| 2026-04-16 14:17 | 30.40577 | 30.98418 | 22455 ft | 347 kts | 314° |
| 2026-04-16 14:17 | 30.42438 | 30.96585 | 23172 ft | 351 kts | 314° |
| 2026-04-16 14:18 | 30.44296 | 30.94754 | 23880 ft | 354 kts | 314° |
| 2026-04-16 14:18 | 30.46202 | 30.92876 | 24663 ft | 356 kts | 313° |
| 2026-04-16 14:18 | 30.48076 | 30.91027 | 25343 ft | 357 kts | 313° |
| 2026-04-16 14:18 | 30.49989 | 30.89138 | 25963 ft | 360 kts | 313° |
| 2026-04-16 14:19 | 30.51891 | 30.87260 | 26594 ft | 361 kts | 312° |
| 2026-04-16 14:19 | 30.53802 | 30.85371 | 27218 ft | 362 kts | 312° |
| 2026-04-16 14:19 | 30.55726 | 30.83468 | 27786 ft | 364 kts | 311° |
| 2026-04-16 14:19 | 30.57683 | 30.81531 | 28377 ft | 365 kts | 311° |
| 2026-04-16 14:20 | 30.59619 | 30.79614 | 28917 ft | 366 kts | 311° |
| 2026-04-16 14:20 | 30.61580 | 30.77671 | 29415 ft | 368 kts | 310° |
| 2026-04-16 14:20 | 30.63540 | 30.75727 | 29936 ft | 369 kts | 310° |
| 2026-04-16 14:20 | 30.65502 | 30.73780 | 30410 ft | 370 kts | 310° |
| 2026-04-16 14:21 | 30.67462 | 30.71835 | 30822 ft | 373 kts | 310° |
| 2026-04-16 14:21 | 30.69466 | 30.69842 | 31201 ft | 376 kts | 310° |
| 2026-04-16 14:21 | 30.71476 | 30.67843 | 31561 ft | 379 kts | 310° |
| 2026-04-16 14:21 | 30.73505 | 30.65826 | 31958 ft | 380 kts | 310° |
| 2026-04-16 14:22 | 30.75546 | 30.63796 | 32362 ft | 381 kts | 310° |
| 2026-04-16 14:22 | 30.77567 | 30.61784 | 32730 ft | 382 kts | 309° |
| 2026-04-16 14:22 | 30.79592 | 30.59767 | 33099 ft | 383 kts | 309° |
| 2026-04-16 14:22 | 30.81638 | 30.57727 | 33377 ft | 385 kts | 309° |
| 2026-04-16 14:23 | 30.83684 | 30.55687 | 33727 ft | 385 kts | 309° |
| 2026-04-16 14:23 | 30.85740 | 30.53637 | 34171 ft | 383 kts | 309° |
| 2026-04-16 14:23 | 30.87769 | 30.51615 | 34606 ft | 381 kts | 309° |
| 2026-04-16 14:23 | 30.89786 | 30.49603 | 35043 ft | 378 kts | 309° |
| 2026-04-16 14:24 | 30.91780 | 30.47611 | 35424 ft | 377 kts | 308° |
| 2026-04-16 14:24 | 30.93793 | 30.45599 | 35781 ft | 376 kts | 308° |
| 2026-04-16 14:24 | 30.95783 | 30.43607 | 36101 ft | 375 kts | 308° |
| 2026-04-16 14:24 | 30.97756 | 30.41633 | 36460 ft | 373 kts | 308° |
| 2026-04-16 14:25 | 30.99718 | 30.39665 | 36683 ft | 375 kts | 308° |
| 2026-04-16 14:25 | 31.01710 | 30.37668 | 36907 ft | 376 kts | 308° |
| 2026-04-16 14:25 | 31.05740 | 30.33598 | 36918 ft | 386 kts | 306° |
| 2026-04-16 14:26 | 31.09091 | 30.28815 | 36947 ft | 377 kts | 291° |
| 2026-04-16 14:26 | 31.11106 | 30.23179 | 37063 ft | 372 kts | 280° |
| 2026-04-16 14:27 | 31.11887 | 30.20297 | 37213 ft | 374 kts | 281° |
| 2026-04-16 14:27 | 31.12677 | 30.17394 | 37390 ft | 374 kts | 281° |
| 2026-04-16 14:27 | 31.13462 | 30.14507 | 37592 ft | 374 kts | 281° |
| 2026-04-16 14:27 | 31.14250 | 30.11612 | 37805 ft | 373 kts | 280° |
| 2026-04-16 14:28 | 31.15046 | 30.08680 | 37958 ft | 373 kts | 280° |
| 2026-04-16 14:28 | 31.15836 | 30.05771 | 38164 ft | 372 kts | 281° |
| 2026-04-16 14:28 | 31.16612 | 30.02913 | 38307 ft | 372 kts | 280° |
| 2026-04-16 14:28 | 31.17396 | 30.00018 | 38436 ft | 373 kts | 281° |
| 2026-04-16 14:29 | 31.18206 | 29.97167 | 38614 ft | 374 kts | 284° |
| 2026-04-16 14:29 | 31.19337 | 29.94350 | 38730 ft | 383 kts | 291° |
| 2026-04-16 14:29 | 31.22441 | 29.89156 | 38959 ft | 390 kts | 297° |
| 2026-04-16 14:30 | 31.24035 | 29.86605 | 39095 ft | 390 kts | 296° |
| 2026-04-16 14:30 | 31.25647 | 29.84023 | 39226 ft | 389 kts | 296° |
| 2026-04-16 14:30 | 31.28824 | 29.78928 | 39444 ft | 388 kts | 296° |
| 2026-04-16 14:31 | 31.32025 | 29.73787 | 39637 ft | 388 kts | 297° |
| 2026-04-16 14:31 | 31.35210 | 29.68664 | 39691 ft | 391 kts | 297° |
| 2026-04-16 14:32 | 31.38426 | 29.63484 | 39689 ft | 394 kts | 297° |
| 2026-04-16 14:32 | 31.41653 | 29.58281 | 39691 ft | 396 kts | 297° |
| 2026-04-16 14:33 | 31.44928 | 29.52995 | 39687 ft | 399 kts | 297° |
| 2026-04-16 14:33 | 31.48205 | 29.47698 | 39683 ft | 400 kts | 297° |
| 2026-04-16 14:34 | 31.51513 | 29.42346 | 39687 ft | 402 kts | 297° |
| 2026-04-16 14:34 | 31.54799 | 29.37021 | 39707 ft | 403 kts | 297° |
| 2026-04-16 14:35 | 31.58110 | 29.31649 | 39693 ft | 404 kts | 297° |
| 2026-04-16 14:35 | 31.61403 | 29.26288 | 39685 ft | 404 kts | 296° |
| 2026-04-16 14:36 | 31.64688 | 29.20929 | 39685 ft | 404 kts | 296° |
| 2026-04-16 14:36 | 31.67993 | 29.15527 | 39688 ft | 405 kts | 296° |
| 2026-04-16 14:37 | 31.71295 | 29.10125 | 39686 ft | 405 kts | 296° |
| 2026-04-16 14:37 | 31.75201 | 29.05165 | 39691 ft | 423 kts | 309° |
| 2026-04-16 14:38 | 31.79805 | 29.00736 | 39697 ft | 426 kts | 310° |
| 2026-04-16 14:38 | 31.84424 | 28.96286 | 39682 ft | 427 kts | 310° |
| 2026-04-16 14:39 | 31.89023 | 28.91850 | 39686 ft | 429 kts | 310° |
| 2026-04-16 14:39 | 31.93658 | 28.87377 | 39687 ft | 426 kts | 310° |
| 2026-04-16 14:40 | 31.98242 | 28.82944 | 39679 ft | 426 kts | 311° |
| 2026-04-16 14:40 | 32.02846 | 28.78486 | 39702 ft | 428 kts | 310° |
| 2026-04-16 14:41 | 32.07475 | 28.73996 | 39697 ft | 430 kts | 310° |
| 2026-04-16 14:41 | 32.12098 | 28.69508 | 39702 ft | 430 kts | 310° |
| 2026-04-16 14:42 | 32.16735 | 28.65000 | 39710 ft | 431 kts | 310° |
| 2026-04-16 14:42 | 32.21362 | 28.60495 | 39696 ft | 432 kts | 311° |
| 2026-04-16 14:43 | 32.26041 | 28.55934 | 39702 ft | 432 kts | 311° |
| 2026-04-16 14:43 | 32.30683 | 28.51402 | 39699 ft | 434 kts | 311° |
| 2026-04-16 14:44 | 32.35354 | 28.46836 | 39710 ft | 436 kts | 311° |
| 2026-04-16 14:44 | 32.40070 | 28.42220 | 39699 ft | 437 kts | 311° |
| 2026-04-16 14:45 | 32.44749 | 28.37635 | 39703 ft | 437 kts | 311° |
| 2026-04-16 14:45 | 32.49445 | 28.33025 | 39702 ft | 438 kts | 311° |
| 2026-04-16 14:46 | 32.54141 | 28.28409 | 39696 ft | 438 kts | 311° |
| 2026-04-16 14:46 | 32.58871 | 28.23754 | 39694 ft | 439 kts | 311° |
| 2026-04-16 14:47 | 32.63597 | 28.19093 | 39702 ft | 441 kts | 311° |
| 2026-04-16 14:47 | 32.68339 | 28.14412 | 39698 ft | 443 kts | 311° |
| 2026-04-16 14:48 | 32.73110 | 28.09695 | 39684 ft | 445 kts | 312° |
| 2026-04-16 14:48 | 32.77871 | 28.04982 | 39692 ft | 445 kts | 312° |
| 2026-04-16 14:49 | 32.82651 | 28.00243 | 39690 ft | 446 kts | 312° |
| 2026-04-16 14:49 | 32.87443 | 27.95486 | 39695 ft | 447 kts | 312° |
| 2026-04-16 14:50 | 32.92247 | 27.90709 | 39699 ft | 448 kts | 312° |
| 2026-04-16 14:50 | 32.97087 | 27.85890 | 39709 ft | 450 kts | 312° |
| 2026-04-16 14:51 | 33.01878 | 27.81112 | 39695 ft | 451 kts | 312° |
| 2026-04-16 14:51 | 33.06720 | 27.76277 | 39718 ft | 451 kts | 312° |
| 2026-04-16 14:53 | 33.26105 | 27.56844 | 39693 ft | 453 kts | 313° |
| 2026-04-16 14:54 | 33.30940 | 27.51979 | 39722 ft | 454 kts | 313° |
| 2026-04-16 14:54 | 33.35760 | 27.47121 | 39716 ft | 455 kts | 313° |
| 2026-04-16 14:55 | 33.40629 | 27.42207 | 39711 ft | 456 kts | 313° |
| 2026-04-16 14:55 | 33.45491 | 27.37292 | 39720 ft | 457 kts | 313° |
| 2026-04-16 14:56 | 33.50361 | 27.32362 | 39716 ft | 459 kts | 313° |
| 2026-04-16 14:56 | 33.55277 | 27.27378 | 39716 ft | 459 kts | 313° |
| 2026-04-16 14:57 | 33.60151 | 27.22430 | 39726 ft | 459 kts | 312° |
| 2026-04-16 14:57 | 33.65048 | 27.17450 | 39729 ft | 459 kts | 313° |
| 2026-04-16 14:58 | 33.72384 | 27.09974 | 39731 ft | 460 kts | 313° |
| 2026-04-16 14:59 | 33.77145 | 27.05114 | 39724 ft | 462 kts | 313° |
| 2026-04-16 14:59 | 33.82093 | 27.00055 | 39730 ft | 462 kts | 313° |
| 2026-04-16 15:00 | 33.86988 | 26.95043 | 39736 ft | 462 kts | 313° |
| 2026-04-16 15:00 | 33.91942 | 26.89961 | 39731 ft | 463 kts | 313° |
| 2026-04-16 15:01 | 33.96843 | 26.84926 | 39757 ft | 463 kts | 313° |
| 2026-04-16 15:01 | 34.01852 | 26.79933 | 39765 ft | 467 kts | 316° |
| 2026-04-16 15:02 | 34.07053 | 26.75123 | 39755 ft | 468 kts | 317° |
| 2026-04-16 15:02 | 34.12252 | 26.70301 | 39765 ft | 467 kts | 317° |
| 2026-04-16 15:03 | 34.17435 | 26.65486 | 39767 ft | 467 kts | 316° |
| 2026-04-16 15:03 | 34.22607 | 26.60672 | 39766 ft | 467 kts | 317° |
| 2026-04-16 15:04 | 34.27797 | 26.55832 | 39777 ft | 467 kts | 317° |
| 2026-04-16 15:04 | 34.32968 | 26.51002 | 39784 ft | 466 kts | 317° |
| 2026-04-16 15:05 | 34.38123 | 26.46180 | 39779 ft | 466 kts | 317° |
| 2026-04-16 15:05 | 34.43272 | 26.41354 | 39784 ft | 466 kts | 317° |
| 2026-04-16 15:06 | 34.48435 | 26.36507 | 39796 ft | 466 kts | 317° |
| 2026-04-16 15:06 | 34.53576 | 26.31673 | 39805 ft | 467 kts | 317° |
| 2026-04-16 15:07 | 34.58715 | 26.26832 | 39786 ft | 467 kts | 317° |
| 2026-04-16 15:07 | 34.63858 | 26.21981 | 39797 ft | 467 kts | 317° |
| 2026-04-16 15:08 | 34.69031 | 26.17052 | 39798 ft | 464 kts | 315° |
| 2026-04-16 15:08 | 34.73361 | 26.11370 | 39806 ft | 455 kts | 301° |
| 2026-04-16 15:09 | 34.77124 | 26.05084 | 39800 ft | 455 kts | 301° |
| 2026-04-16 15:09 | 34.80853 | 25.98847 | 39817 ft | 456 kts | 301° |
| 2026-04-16 15:10 | 34.84618 | 25.92536 | 39792 ft | 457 kts | 301° |
| 2026-04-16 15:10 | 34.88366 | 25.86243 | 39804 ft | 458 kts | 301° |
| 2026-04-16 15:11 | 34.92116 | 25.79935 | 39817 ft | 458 kts | 302° |
| 2026-04-16 15:11 | 34.95878 | 25.73595 | 39803 ft | 458 kts | 301° |
| 2026-04-16 15:12 | 34.99618 | 25.67280 | 39809 ft | 458 kts | 302° |
| 2026-04-16 15:12 | 35.03352 | 25.60965 | 39807 ft | 458 kts | 302° |
| 2026-04-16 15:13 | 35.07078 | 25.54650 | 39813 ft | 458 kts | 302° |
| 2026-04-16 15:13 | 35.10799 | 25.48333 | 39856 ft | 459 kts | 302° |
| 2026-04-16 15:14 | 35.14537 | 25.41976 | 39856 ft | 459 kts | 302° |
| 2026-04-16 15:14 | 35.18277 | 25.35602 | 39842 ft | 461 kts | 302° |
| 2026-04-16 15:15 | 35.22038 | 25.29180 | 39850 ft | 462 kts | 301° |
| 2026-04-16 15:15 | 35.25777 | 25.22788 | 39865 ft | 461 kts | 302° |
| 2026-04-16 15:16 | 35.29513 | 25.16385 | 39866 ft | 462 kts | 302° |
| 2026-04-16 15:16 | 35.33255 | 25.09963 | 39883 ft | 461 kts | 302° |
| 2026-04-16 15:17 | 35.36994 | 25.03532 | 39853 ft | 462 kts | 301° |
| 2026-04-16 15:17 | 35.40728 | 24.97099 | 39864 ft | 462 kts | 302° |
| 2026-04-16 15:18 | 35.44459 | 24.90659 | 39849 ft | 463 kts | 302° |
| 2026-04-16 15:18 | 35.48188 | 24.84210 | 39857 ft | 463 kts | 302° |
| 2026-04-16 15:19 | 35.51898 | 24.77783 | 39868 ft | 463 kts | 302° |
| 2026-04-16 15:19 | 35.55626 | 24.71313 | 39862 ft | 463 kts | 302° |
| 2026-04-16 15:20 | 35.59365 | 24.64811 | 39858 ft | 463 kts | 302° |
| 2026-04-16 15:20 | 35.63059 | 24.58374 | 39852 ft | 464 kts | 302° |
| 2026-04-16 15:21 | 35.66801 | 24.51844 | 39866 ft | 465 kts | 302° |
| 2026-04-16 15:21 | 35.70507 | 24.45361 | 39872 ft | 465 kts | 302° |
| 2026-04-16 15:22 | 35.74228 | 24.38842 | 39875 ft | 465 kts | 302° |
| 2026-04-16 15:22 | 35.77955 | 24.32299 | 39880 ft | 465 kts | 302° |
| 2026-04-16 15:23 | 35.81677 | 24.25754 | 39891 ft | 465 kts | 302° |
| 2026-04-16 15:23 | 35.85384 | 24.19222 | 39887 ft | 465 kts | 302° |
| 2026-04-16 15:24 | 35.89097 | 24.12666 | 39872 ft | 465 kts | 302° |
| 2026-04-16 15:24 | 35.92821 | 24.06080 | 39893 ft | 465 kts | 302° |
| 2026-04-16 15:25 | 35.96506 | 23.99550 | 39863 ft | 463 kts | 302° |
| 2026-04-16 15:25 | 35.98350 | 23.96279 | 39564 ft | 456 kts | 302° |
| 2026-04-16 15:25 | 36.00160 | 23.93064 | 38869 ft | 459 kts | 302° |
| 2026-04-16 15:25 | 36.02011 | 23.89771 | 38006 ft | 466 kts | 302° |
| 2026-04-16 15:26 | 36.03874 | 23.86453 | 37099 ft | 473 kts | 303° |
| 2026-04-16 15:26 | 36.05753 | 23.83104 | 36304 ft | 479 kts | 302° |
| 2026-04-16 15:26 | 36.07651 | 23.79719 | 35599 ft | 484 kts | 303° |
| 2026-04-16 15:26 | 36.09602 | 23.76235 | 34827 ft | 489 kts | 303° |
| 2026-04-16 15:27 | 36.11528 | 23.72795 | 33802 ft | 492 kts | 303° |
| 2026-04-16 15:27 | 36.13460 | 23.69340 | 32810 ft | 494 kts | 303° |
| 2026-04-16 15:27 | 36.15421 | 23.65829 | 32063 ft | 489 kts | 304° |
| 2026-04-16 15:27 | 36.17353 | 23.62368 | 31419 ft | 482 kts | 304° |
| 2026-04-16 15:28 | 36.19246 | 23.58973 | 30815 ft | 476 kts | 304° |
| 2026-04-16 15:28 | 36.21122 | 23.55606 | 30205 ft | 470 kts | 304° |
| 2026-04-16 15:28 | 36.22971 | 23.52282 | 29620 ft | 464 kts | 304° |
| 2026-04-16 15:28 | 36.24669 | 23.48890 | 28996 ft | 457 kts | 295° |
| 2026-04-16 15:29 | 36.25691 | 23.45230 | 28411 ft | 448 kts | 280° |
| 2026-04-16 15:29 | 36.26043 | 23.41399 | 27759 ft | 442 kts | 271° |
| 2026-04-16 15:29 | 36.26201 | 23.37599 | 27078 ft | 442 kts | 271° |
| 2026-04-16 15:29 | 36.26364 | 23.33823 | 26549 ft | 436 kts | 271° |
| 2026-04-16 15:30 | 36.26524 | 23.30094 | 26085 ft | 430 kts | 271° |
| 2026-04-16 15:30 | 36.26679 | 23.26429 | 25514 ft | 427 kts | 271° |
| 2026-04-16 15:30 | 36.26834 | 23.22757 | 24960 ft | 424 kts | 271° |
| 2026-04-16 15:30 | 36.26988 | 23.19069 | 24402 ft | 421 kts | 271° |
| 2026-04-16 15:31 | 36.27136 | 23.15486 | 23877 ft | 417 kts | 271° |
| 2026-04-16 15:31 | 36.27284 | 23.11915 | 23378 ft | 413 kts | 271° |
| 2026-04-16 15:31 | 36.27427 | 23.08380 | 22889 ft | 409 kts | 271° |
| 2026-04-16 15:31 | 36.27568 | 23.04887 | 22342 ft | 407 kts | 271° |
| 2026-04-16 15:32 | 36.27955 | 23.01454 | 21705 ft | 403 kts | 285° |
| 2026-04-16 15:32 | 36.29026 | 22.98249 | 20857 ft | 401 kts | 296° |
| 2026-04-16 15:32 | 36.30267 | 22.95142 | 20073 ft | 402 kts | 296° |
| 2026-04-16 15:32 | 36.31500 | 22.92027 | 19522 ft | 400 kts | 295° |
| 2026-04-16 15:33 | 36.32728 | 22.88922 | 19096 ft | 395 kts | 295° |
| 2026-04-16 15:33 | 36.33910 | 22.85928 | 18653 ft | 388 kts | 295° |
| 2026-04-16 15:33 | 36.35101 | 22.82911 | 18050 ft | 385 kts | 295° |
| 2026-04-16 15:33 | 36.36279 | 22.79920 | 17450 ft | 383 kts | 295° |
| 2026-04-16 15:34 | 36.37427 | 22.77002 | 16891 ft | 380 kts | 295° |
| 2026-04-16 15:34 | 36.38591 | 22.74044 | 16387 ft | 375 kts | 296° |
| 2026-04-16 15:34 | 36.39709 | 22.71197 | 15798 ft | 369 kts | 295° |
| 2026-04-16 15:34 | 36.40837 | 22.68322 | 15130 ft | 369 kts | 295° |
| 2026-04-16 15:35 | 36.41958 | 22.65465 | 14547 ft | 367 kts | 295° |
| 2026-04-16 15:35 | 36.43070 | 22.62626 | 14001 ft | 364 kts | 295° |
| 2026-04-16 15:35 | 36.44163 | 22.59831 | 13450 ft | 361 kts | 295° |
| 2026-04-16 15:35 | 36.45269 | 22.57002 | 12888 ft | 358 kts | 295° |
| 2026-04-16 15:36 | 36.46348 | 22.54239 | 12328 ft | 355 kts | 295° |
| 2026-04-16 15:36 | 36.47422 | 22.51485 | 11760 ft | 353 kts | 295° |
| 2026-04-16 15:36 | 36.48489 | 22.48748 | 11189 ft | 351 kts | 295° |
| 2026-04-16 15:36 | 36.49534 | 22.46063 | 10648 ft | 348 kts | 296° |
| 2026-04-16 15:37 | 36.50593 | 22.43342 | 10119 ft | 345 kts | 295° |
| 2026-04-16 15:37 | 36.51639 | 22.40651 | 9591 ft | 342 kts | 295° |
| 2026-04-16 15:37 | 36.52670 | 22.37996 | 9046 ft | 340 kts | 296° |
| 2026-04-16 15:37 | 36.53698 | 22.35348 | 8489 ft | 338 kts | 296° |
| 2026-04-16 15:38 | 36.54716 | 22.32720 | 7921 ft | 336 kts | 296° |
| 2026-04-16 15:38 | 36.55733 | 22.30096 | 7351 ft | 333 kts | 296° |
| 2026-04-16 15:38 | 36.56724 | 22.27533 | 6915 ft | 326 kts | 296° |
| 2026-04-16 15:38 | 36.57684 | 22.25051 | 6816 ft | 309 kts | 296° |
| 2026-04-16 15:39 | 36.58611 | 22.22650 | 6555 ft | 300 kts | 296° |
| 2026-04-16 15:39 | 36.59496 | 22.20358 | 6201 ft | 296 kts | 296° |
| 2026-04-16 15:39 | 36.60386 | 22.18050 | 5894 ft | 289 kts | 296° |
| 2026-04-16 15:39 | 36.61245 | 22.15839 | 5717 ft | 286 kts | 298° |
| 2026-04-16 15:40 | 36.62461 | 22.13860 | 5543 ft | 285 kts | 322° |
| 2026-04-16 15:40 | 36.64147 | 22.12675 | 5418 ft | 278 kts | 346° |
| 2026-04-16 15:40 | 36.66001 | 22.12164 | 5296 ft | 276 kts | 353° |
| 2026-04-16 15:40 | 36.67883 | 22.11715 | 5178 ft | 276 kts | 353° |
| 2026-04-16 15:41 | 36.69773 | 22.11257 | 5046 ft | 275 kts | 352° |
| 2026-04-16 15:41 | 36.71655 | 22.10801 | 4922 ft | 274 kts | 352° |
| 2026-04-16 15:41 | 36.73530 | 22.10346 | 4802 ft | 273 kts | 352° |
| 2026-04-16 15:41 | 36.75422 | 22.09882 | 4675 ft | 272 kts | 351° |
| 2026-04-16 15:42 | 36.77284 | 22.09417 | 4550 ft | 272 kts | 351° |
| 2026-04-16 15:42 | 36.79134 | 22.08981 | 4426 ft | 270 kts | 352° |
| 2026-04-16 15:42 | 36.80949 | 22.08553 | 4323 ft | 255 kts | 352° |
| 2026-04-16 15:42 | 36.82635 | 22.08159 | 4211 ft | 242 kts | 353° |
| 2026-04-16 15:43 | 36.84264 | 22.07781 | 4095 ft | 230 kts | 353° |
| 2026-04-16 15:43 | 36.85813 | 22.07423 | 3858 ft | 224 kts | 353° |
| 2026-04-16 15:43 | 36.87313 | 22.07075 | 3580 ft | 212 kts | 353° |
| 2026-04-16 15:43 | 36.88732 | 22.06745 | 3308 ft | 202 kts | 353° |
| 2026-04-16 15:44 | 36.90092 | 22.06431 | 3049 ft | 196 kts | 353° |
| 2026-04-16 15:44 | 36.91431 | 22.06121 | 2794 ft | 194 kts | 353° |
| 2026-04-16 15:44 | 36.92746 | 22.05817 | 2552 ft | 187 kts | 352° |
| 2026-04-16 15:44 | 36.94009 | 22.05521 | 2302 ft | 179 kts | 352° |
| 2026-04-16 15:45 | 36.95208 | 22.05242 | 2060 ft | 166 kts | 352° |
| 2026-04-16 15:45 | 36.96254 | 22.04996 | 1876 ft | 139 kts | 352° |
| 2026-04-16 15:45 | 36.97186 | 22.04778 | 1687 ft | 133 kts | 352° |
| 2026-04-16 15:45 | 36.98082 | 22.04573 | 1506 ft | 128 kts | 351° |
| 2026-04-16 15:46 | 36.98961 | 22.04366 | 1348 ft | 128 kts | 351° |
| 2026-04-16 15:46 | 36.99840 | 22.04163 | 1167 ft | 130 kts | 351° |
| 2026-04-16 15:46 | 37.00731 | 22.03960 | 1027 ft | 128 kts | 350° |
| 2026-04-16 15:46 | 37.01625 | 22.03753 | 847 ft | 129 kts | 349° |
| 2026-04-16 15:47 | 37.02501 | 22.03505 | 691 ft | 129 kts | 348° |
| 2026-04-16 15:47 | 37.03404 | 22.03322 | 496 ft | 130 kts | 352° |
| 2026-04-16 15:47 | 37.04290 | 22.03126 | 327 ft | 128 kts | 351° |
| 2026-04-16 15:47 | 37.05185 | 22.02917 | 156 ft | 130 kts | 350° |
| 2026-04-16 15:48 | 37.06069 | 22.02717 | 26 ft | 121 kts | 348° |
| 2026-04-16 15:48 | 37.06778 | 22.02548 | 26 ft | 77 kts | 348° |
| 2026-04-16 15:48 | 37.07108 | 22.02472 | 28 ft | 21 kts | 348° |
| 2026-04-16 15:48 | 37.07164 | 22.02478 | 28 ft | 4 kts | 61° |
| 2026-04-16 15:49 | 37.07187 | 22.02538 | 28 ft | 10 kts | 77° |
| 2026-04-16 15:49 | 37.07129 | 22.02597 | 28 ft | 15 kts | 170° |
| 2026-04-16 15:49 | 37.06991 | 22.02628 | 27 ft | 24 kts | 169° |
| 2026-04-16 15:49 | 37.06804 | 22.02672 | 26 ft | 29 kts | 169° |
| 2026-04-16 15:50 | 37.06575 | 22.02728 | 25 ft | 30 kts | 170° |
| 2026-04-16 15:50 | 37.06395 | 22.02768 | 24 ft | 22 kts | 167° |
| 2026-04-16 15:50 | 37.06246 | 22.02801 | 23 ft | 23 kts | 171° |
| 2026-04-16 15:50 | 37.06076 | 22.02841 | 22 ft | 26 kts | 169° |
| 2026-04-16 15:51 | 37.05876 | 22.02888 | 22 ft | 30 kts | 169° |
| 2026-04-16 15:51 | 37.05658 | 22.02939 | 22 ft | 30 kts | 169° |
| 2026-04-16 15:51 | 37.05566 | 22.02964 | 21 ft | 10 kts | 152° |
| 2026-04-16 15:51 | 37.05537 | 22.03036 | 20 ft | 11 kts | 105° |
| 2026-04-16 15:52 | 37.05512 | 22.03157 | 20 ft | 16 kts | 105° |
| 2026-04-16 15:52 | 37.05482 | 22.03261 | 21 ft | 8 kts | 89° |
| 2026-04-16 15:52 | 37.05471 | 22.03329 | 21 ft | 7 kts | 120° |
| 2026-04-16 15:52 | 37.05459 | 22.03355 | 21 ft | 0 kts | 120° |
| 2026-04-16 15:53 | 37.05459 | 22.03356 | 21 ft | 0 kts | 120° |